createdAt,value
2018-05-23T00:02:09.267Z,14.67
2018-05-23T00:04:37.306Z,14.75
2018-05-23T00:07:05.217Z,14.65
2018-05-23T00:09:33.128Z,14.62
2018-05-23T00:12:01.065Z,14.86
2018-05-23T00:14:29.057Z,14.81
2018-05-23T00:16:56.986Z,14.91
2018-05-23T00:19:25.378Z,14.80
2018-05-23T00:21:53.297Z,14.69
2018-05-23T00:24:21.217Z,14.77
2018-05-23T00:26:49.123Z,14.70
2018-05-23T00:29:17.081Z,14.55
2018-05-23T00:31:44.990Z,14.59
2018-05-23T00:34:12.935Z,14.55
2018-05-23T00:36:40.847Z,14.52
2018-05-23T00:39:08.768Z,14.51
2018-05-23T00:41:36.700Z,14.45
2018-05-23T00:44:04.617Z,14.32
2018-05-23T00:46:32.549Z,14.35
2018-05-23T00:49:00.493Z,14.40
2018-05-23T00:51:28.412Z,14.24
2018-05-23T00:53:56.345Z,14.35
2018-05-23T00:56:24.271Z,14.30
2018-05-23T00:58:52.393Z,14.41
2018-05-23T01:01:20.312Z,14.28
2018-05-23T01:03:49.023Z,14.35
2018-05-23T01:06:16.938Z,14.26
2018-05-23T01:08:44.859Z,14.15
2018-05-23T01:11:12.897Z,14.26
2018-05-23T01:13:40.834Z,14.19
2018-05-23T01:16:09.040Z,14.11
2018-05-23T01:18:36.945Z,14.03
2018-05-23T01:21:04.876Z,14.07
2018-05-23T01:23:32.802Z,14.10
2018-05-23T01:26:00.738Z,14.11
2018-05-23T01:28:28.637Z,14.06
2018-05-23T01:30:57.170Z,13.97
2018-05-23T01:33:25.083Z,14.05
2018-05-23T01:35:53.020Z,13.95
2018-05-23T01:38:20.941Z,13.93
2018-05-23T01:40:48.877Z,13.90
2018-05-23T01:43:16.795Z,13.80
2018-05-23T01:45:44.719Z,13.83
2018-05-23T01:48:12.619Z,13.85
2018-05-23T01:50:40.556Z,13.97
2018-05-23T01:53:08.459Z,14.00
2018-05-23T01:55:36.386Z,13.98
2018-05-23T01:58:04.288Z,14.04
2018-05-23T02:00:32.229Z,14.12
2018-05-23T02:03:00.133Z,14.10
2018-05-23T02:05:28.080Z,14.07
2018-05-23T02:07:56.012Z,14.06
2018-05-23T02:10:23.933Z,14.20
2018-05-23T02:12:51.866Z,14.21
2018-05-23T02:15:19.809Z,14.20
2018-05-23T02:17:47.744Z,14.20
2018-05-23T02:20:15.657Z,14.23
2018-05-23T02:22:43.609Z,14.09
2018-05-23T02:25:11.628Z,13.85
2018-05-23T02:27:39.560Z,13.90
2018-05-23T02:30:07.473Z,13.86
2018-05-23T02:32:35.424Z,13.83
2018-05-23T02:35:03.349Z,13.85
2018-05-23T02:37:31.274Z,13.82
2018-05-23T02:39:59.208Z,13.84
2018-05-23T02:42:27.138Z,14.05
2018-05-23T02:44:55.069Z,14.03
2018-05-23T02:47:23.054Z,13.98
2018-05-23T02:49:51.063Z,13.95
2018-05-23T02:52:18.872Z,13.90
2018-05-23T02:54:46.809Z,13.83
2018-05-23T02:57:14.721Z,13.82
2018-05-23T02:59:42.655Z,13.75
2018-05-23T03:02:10.565Z,13.76
2018-05-23T03:04:38.483Z,13.83
2018-05-23T03:07:06.621Z,13.82
2018-05-23T03:09:34.552Z,13.76
2018-05-23T03:12:02.455Z,13.75
2018-05-23T03:14:30.378Z,13.73
2018-05-23T03:16:58.304Z,13.75
2018-05-23T03:19:26.202Z,13.80
2018-05-23T03:21:54.115Z,13.80
2018-05-23T03:24:22.065Z,13.77
2018-05-23T03:26:50.505Z,13.91
2018-05-23T03:29:18.420Z,13.96
2018-05-23T03:31:46.351Z,13.91
2018-05-23T03:34:14.250Z,13.81
2018-05-23T03:36:42.181Z,13.82
2018-05-23T03:39:10.096Z,13.93
2018-05-23T03:41:38.030Z,13.98
2018-05-23T03:44:05.947Z,13.95
2018-05-23T03:46:33.862Z,13.96
2018-05-23T03:49:01.803Z,14.03
2018-05-23T03:51:29.714Z,14.05
2018-05-23T03:53:57.634Z,14.21
2018-05-23T03:56:25.556Z,14.20
2018-05-23T03:58:53.468Z,14.62
2018-05-23T04:01:33.860Z,14.79
2018-05-23T04:04:13.730Z,14.49
2018-05-23T04:06:53.514Z,14.59
2018-05-23T04:09:21.441Z,14.83
2018-05-23T04:11:49.389Z,14.85
2018-05-23T04:14:17.332Z,14.79
2018-05-23T04:16:45.272Z,14.88
2018-05-23T04:19:13.198Z,14.94
2018-05-23T04:21:41.138Z,15.04
2018-05-23T04:24:09.345Z,15.03
2018-05-23T04:26:37.166Z,15.29
2018-05-23T04:29:05.087Z,15.25
2018-05-23T04:31:33.031Z,15.40
2018-05-23T04:34:00.944Z,15.38
2018-05-23T04:36:28.860Z,15.36
2018-05-23T04:38:56.773Z,15.33
2018-05-23T04:41:24.684Z,15.66
2018-05-23T04:43:52.629Z,15.68
2018-05-23T04:46:20.527Z,15.57
2018-05-23T04:48:48.467Z,15.59
2018-05-23T04:51:16.364Z,15.68
2018-05-23T04:53:44.283Z,15.80
2018-05-23T04:56:12.209Z,15.88
2018-05-23T04:58:40.139Z,15.96
2018-05-23T05:01:08.059Z,15.97
2018-05-23T05:03:35.968Z,16.14
2018-05-23T05:06:03.900Z,16.25
2018-05-23T05:08:31.834Z,16.20
2018-05-23T05:10:59.754Z,16.24
2018-05-23T05:13:27.663Z,16.24
2018-05-23T05:15:55.576Z,16.28
2018-05-23T05:18:23.504Z,16.36
2018-05-23T05:20:51.481Z,16.28
2018-05-23T05:23:19.404Z,16.39
2018-05-23T05:25:47.315Z,16.63
2018-05-23T05:28:15.308Z,16.62
2018-05-23T05:30:43.194Z,16.45
2018-05-23T05:33:11.115Z,16.73
2018-05-23T05:35:39.047Z,16.91
2018-05-23T05:38:06.965Z,16.89
2018-05-23T05:40:34.898Z,16.95
2018-05-23T05:43:02.823Z,17.00
2018-05-23T05:45:30.775Z,16.93
2018-05-23T05:47:58.684Z,17.04
2018-05-23T05:50:26.649Z,17.23
2018-05-23T05:52:54.538Z,17.39
2018-05-23T05:55:22.514Z,17.39
2018-05-23T05:57:50.432Z,17.52
2018-05-23T06:00:18.363Z,17.53
2018-05-23T06:02:46.283Z,17.48
2018-05-23T06:05:14.214Z,17.54
2018-05-23T06:07:42.134Z,17.63
2018-05-23T06:10:10.081Z,17.67
2018-05-23T06:12:38.912Z,17.70
2018-05-23T06:15:06.848Z,17.77
2018-05-23T06:17:34.753Z,17.66
2018-05-23T06:20:02.689Z,17.69
2018-05-23T06:22:30.625Z,17.78
2018-05-23T06:24:59.716Z,17.96
2018-05-23T06:27:27.661Z,17.99
2018-05-23T06:29:55.643Z,17.98
2018-05-23T06:32:23.558Z,17.83
2018-05-23T06:34:51.502Z,17.90
2018-05-23T06:37:19.417Z,18.08
2018-05-23T06:39:47.346Z,18.29
2018-05-23T06:42:15.248Z,18.35
2018-05-23T06:44:43.210Z,18.55
2018-05-23T06:47:11.113Z,18.65
2018-05-23T06:49:39.025Z,18.69
2018-05-23T06:52:06.976Z,19.03
2018-05-23T06:54:34.880Z,19.54
2018-05-23T06:57:02.782Z,19.96
2018-05-23T06:59:30.710Z,20.31
2018-05-23T07:01:58.636Z,20.81
2018-05-23T07:04:26.535Z,20.78
2018-05-23T07:06:54.532Z,21.30
2018-05-23T07:09:22.486Z,21.72
2018-05-23T07:11:50.431Z,21.84
2018-05-23T07:14:18.349Z,21.84
2018-05-23T07:16:46.288Z,22.16
2018-05-23T07:19:14.180Z,22.21
2018-05-23T07:21:42.128Z,22.43
2018-05-23T07:24:10.055Z,22.61
2018-05-23T07:26:38.065Z,22.75
2018-05-23T07:29:05.957Z,22.94
2018-05-23T07:31:33.868Z,22.86
2018-05-23T07:34:01.792Z,22.78
2018-05-23T07:36:29.909Z,22.58
2018-05-23T07:38:57.831Z,23.17
2018-05-23T07:41:25.724Z,23.73
2018-05-23T07:43:54.371Z,23.99
2018-05-23T07:46:22.294Z,23.54
2018-05-23T07:48:50.204Z,23.92
2018-05-23T07:51:18.167Z,23.25
2018-05-23T07:53:46.144Z,23.45
2018-05-23T07:56:14.068Z,23.83
2018-05-23T07:58:41.980Z,24.19
2018-05-23T08:01:09.905Z,24.75
2018-05-23T08:03:37.826Z,24.41
2018-05-23T08:06:05.742Z,23.88
2018-05-23T08:08:33.695Z,24.15
2018-05-23T08:11:01.668Z,24.76
2018-05-23T08:13:29.600Z,24.21
2018-05-23T08:15:57.565Z,24.17
2018-05-23T08:18:25.467Z,24.23
2018-05-23T08:20:53.391Z,24.32
2018-05-23T08:23:21.300Z,24.53
2018-05-23T08:25:49.241Z,24.57
2018-05-23T08:28:17.178Z,24.34
2018-05-23T08:30:45.070Z,24.73
2018-05-23T08:33:13.007Z,24.36
2018-05-23T08:35:40.937Z,24.90
2018-05-23T08:38:08.838Z,25.22
2018-05-23T08:40:36.799Z,25.43
2018-05-23T08:43:04.703Z,25.22
2018-05-23T08:45:32.702Z,25.65
2018-05-23T08:48:00.673Z,25.58
2018-05-23T08:50:28.653Z,26.08
2018-05-23T08:52:56.544Z,26.10
2018-05-23T08:55:24.475Z,26.65
2018-05-23T08:57:52.381Z,26.54
2018-05-23T09:00:20.810Z,26.67
2018-05-23T09:02:48.724Z,26.91
2018-05-23T09:05:16.702Z,26.70
2018-05-23T09:07:44.618Z,26.68
2018-05-23T09:10:12.579Z,25.82
2018-05-23T09:12:40.511Z,26.15
2018-05-23T09:15:08.397Z,27.05
2018-05-23T09:17:36.321Z,26.87
2018-05-23T09:20:04.244Z,26.52
2018-05-23T09:22:32.172Z,26.05
2018-05-23T09:25:00.081Z,26.89
2018-05-23T09:27:28.007Z,27.14
2018-05-23T09:29:55.943Z,27.15
2018-05-23T09:32:23.869Z,26.95
2018-05-23T09:34:51.788Z,26.79
2018-05-23T09:37:19.723Z,27.17
2018-05-23T09:39:47.637Z,27.53
2018-05-23T09:42:15.568Z,27.55
2018-05-23T09:44:43.478Z,27.81
2018-05-23T09:47:11.405Z,27.82
2018-05-23T09:49:39.400Z,27.42
2018-05-23T09:52:07.356Z,27.55
2018-05-23T09:54:35.294Z,28.28
2018-05-23T09:57:03.248Z,28.26
2018-05-23T09:59:31.160Z,28.27
2018-05-23T10:01:59.102Z,28.74
2018-05-23T10:04:27.048Z,28.21
2018-05-23T10:06:54.966Z,27.61
2018-05-23T10:09:22.889Z,28.24
2018-05-23T10:11:50.832Z,28.25
2018-05-23T10:14:18.752Z,27.87
2018-05-23T10:16:46.824Z,28.34
2018-05-23T10:19:14.739Z,28.73
2018-05-23T10:21:42.680Z,27.71
2018-05-23T10:24:10.606Z,27.88
2018-05-23T10:26:38.523Z,28.93
2018-05-23T10:29:06.447Z,28.91
2018-05-23T10:31:34.355Z,29.02
2018-05-23T10:34:02.252Z,28.74
2018-05-23T10:36:30.164Z,27.79
2018-05-23T10:38:58.157Z,27.87
2018-05-23T10:41:26.016Z,27.86
2018-05-23T10:43:53.946Z,28.37
2018-05-23T10:46:21.868Z,28.45
2018-05-23T10:48:49.784Z,27.58
2018-05-23T10:51:17.797Z,27.54
2018-05-23T10:53:45.696Z,27.95
2018-05-23T10:56:13.612Z,28.67
2018-05-23T10:58:41.587Z,28.75
2018-05-23T11:01:09.504Z,28.71
2018-05-23T11:03:37.571Z,28.90
2018-05-23T11:06:05.479Z,29.16
2018-05-23T11:08:33.384Z,29.22
2018-05-23T11:11:01.351Z,28.49
2018-05-23T11:13:29.278Z,28.94
2018-05-23T11:15:57.202Z,29.38
2018-05-23T11:18:25.136Z,29.61
2018-05-23T11:20:53.057Z,29.88
2018-05-23T11:23:20.969Z,29.77
2018-05-23T11:25:48.875Z,29.16
2018-05-23T11:28:16.792Z,28.80
2018-05-23T11:30:44.687Z,29.00
2018-05-23T11:33:12.846Z,28.40
2018-05-23T11:35:40.736Z,28.48
2018-05-23T11:38:08.666Z,28.43
2018-05-23T11:40:36.593Z,28.63
2018-05-23T11:43:04.502Z,28.18
2018-05-23T11:45:32.433Z,28.25
2018-05-23T11:48:00.339Z,28.69
2018-05-23T11:50:28.278Z,29.19
2018-05-23T11:52:56.188Z,29.03
2018-05-23T11:55:24.098Z,28.80
2018-05-23T11:57:51.999Z,28.84
2018-05-23T12:00:19.945Z,29.01
2018-05-23T12:02:47.853Z,28.72
2018-05-23T12:05:15.754Z,28.76
2018-05-23T12:07:43.655Z,28.79
2018-05-23T12:10:11.588Z,29.15
2018-05-23T12:12:39.491Z,29.15
2018-05-23T12:15:07.429Z,29.14
2018-05-23T12:17:35.371Z,29.29
2018-05-23T12:20:03.284Z,28.95
2018-05-23T12:22:31.187Z,29.24
2018-05-23T12:24:59.171Z,29.63
2018-05-23T12:27:27.084Z,29.62
2018-05-23T12:29:55.004Z,29.37
2018-05-23T12:32:22.976Z,29.94
2018-05-23T12:34:50.892Z,29.47
2018-05-23T12:37:19.625Z,28.97
2018-05-23T12:39:47.550Z,29.24
2018-05-23T12:42:15.518Z,28.83
2018-05-23T12:44:43.405Z,29.28
2018-05-23T12:47:11.371Z,29.52
2018-05-23T12:49:39.328Z,29.14
2018-05-23T12:52:07.271Z,29.17
2018-05-23T12:54:35.208Z,28.54
2018-05-23T12:57:03.281Z,29.12
2018-05-23T12:59:31.248Z,29.21
2018-05-23T13:01:59.294Z,29.15
2018-05-23T13:04:27.187Z,29.51
2018-05-23T13:06:55.120Z,29.45
2018-05-23T13:09:23.034Z,29.22
2018-05-23T13:11:50.961Z,29.36
2018-05-23T13:14:18.852Z,29.47
2018-05-23T13:16:46.776Z,29.03
2018-05-23T13:19:14.679Z,28.41
2018-05-23T13:21:42.631Z,27.89
2018-05-23T13:24:10.545Z,27.88
2018-05-23T13:26:38.436Z,27.85
2018-05-23T13:29:06.365Z,28.09
2018-05-23T13:31:34.353Z,28.02
2018-05-23T13:34:02.257Z,27.65
2018-05-23T13:36:30.188Z,27.26
2018-05-23T13:38:58.193Z,27.69
2018-05-23T13:41:26.020Z,28.00
2018-05-23T13:43:53.931Z,28.00
2018-05-23T13:46:21.904Z,27.87
2018-05-23T13:48:49.797Z,27.91
2018-05-23T13:51:17.740Z,27.38
2018-05-23T13:53:45.649Z,27.50
2018-05-23T13:56:13.559Z,27.09
2018-05-23T13:58:41.465Z,27.14
2018-05-23T14:01:09.578Z,27.16
2018-05-23T14:03:37.498Z,27.74
2018-05-23T14:06:05.394Z,27.63
2018-05-23T14:08:33.309Z,27.60
2018-05-23T14:11:01.255Z,27.49
2018-05-23T14:13:29.183Z,27.61
2018-05-23T14:15:57.113Z,27.27
2018-05-23T14:18:25.024Z,27.17
2018-05-23T14:20:53.057Z,27.49
2018-05-23T14:23:20.939Z,27.23
2018-05-23T14:25:48.851Z,27.06
2018-05-23T14:28:16.787Z,26.92
2018-05-23T14:30:44.707Z,26.84
2018-05-23T14:33:12.627Z,26.55
2018-05-23T14:35:40.776Z,26.72
2018-05-23T14:38:08.688Z,26.56
2018-05-23T14:40:36.613Z,26.39
2018-05-23T14:43:04.532Z,26.60
2018-05-23T14:45:32.456Z,26.47
2018-05-23T14:48:00.405Z,26.56
2018-05-23T14:50:28.506Z,26.23
2018-05-23T14:52:56.421Z,26.40
2018-05-23T14:55:24.322Z,26.32
2018-05-23T14:57:52.231Z,26.52
2018-05-23T15:00:20.152Z,26.46
2018-05-23T15:02:48.061Z,26.41
2018-05-23T15:05:15.964Z,26.34
2018-05-23T15:07:44.007Z,26.32
2018-05-23T15:10:11.960Z,26.32
2018-05-23T15:12:39.864Z,26.30
2018-05-23T15:15:07.778Z,26.35
2018-05-23T15:17:35.678Z,26.15
2018-05-23T15:20:03.738Z,25.77
2018-05-23T15:22:31.584Z,25.73
2018-05-23T15:24:59.474Z,25.74
2018-05-23T15:27:27.385Z,26.15
2018-05-23T15:29:55.462Z,26.16
2018-05-23T15:32:23.386Z,26.09
2018-05-23T15:34:51.373Z,26.15
2018-05-23T15:37:19.292Z,25.96
2018-05-23T15:39:47.209Z,25.99
2018-05-23T15:42:16.149Z,26.01
2018-05-23T15:44:43.999Z,26.02
2018-05-23T15:47:11.923Z,25.80
2018-05-23T15:49:39.836Z,25.54
2018-05-23T15:52:07.795Z,25.74
2018-05-23T15:54:35.752Z,25.60
2018-05-23T15:57:03.683Z,25.60
2018-05-23T15:59:31.597Z,25.27
2018-05-23T16:01:59.676Z,25.34
2018-05-23T16:04:27.588Z,25.27
2018-05-23T16:06:55.498Z,25.10
2018-05-23T16:09:23.430Z,25.02
2018-05-23T16:11:51.356Z,25.13
2018-05-23T16:14:19.276Z,25.16
2018-05-23T16:16:47.195Z,25.13
2018-05-23T16:19:15.138Z,25.20
2018-05-23T16:21:43.035Z,25.16
2018-05-23T16:24:11.100Z,25.13
2018-05-23T16:26:39.840Z,24.97
2018-05-23T16:29:07.753Z,24.84
2018-05-23T16:31:35.681Z,24.86
2018-05-23T16:34:03.697Z,24.74
2018-05-23T16:36:31.575Z,24.63
2018-05-23T16:38:59.487Z,24.45
2018-05-23T16:41:27.411Z,24.61
2018-05-23T16:43:55.332Z,24.47
2018-05-23T16:46:23.249Z,24.59
2018-05-23T16:48:51.172Z,24.61
2018-05-23T16:51:19.115Z,24.51
2018-05-23T16:53:47.103Z,24.49
2018-05-23T16:56:15.037Z,24.39
2018-05-23T16:58:42.967Z,24.33
2018-05-23T17:01:10.912Z,24.29
2018-05-23T17:03:38.815Z,24.10
2018-05-23T17:06:06.812Z,24.15
2018-05-23T17:08:34.765Z,24.13
2018-05-23T17:11:02.674Z,24.08
2018-05-23T17:13:30.600Z,24.00
2018-05-23T17:15:58.532Z,23.88
2018-05-23T17:18:26.446Z,23.94
2018-05-23T17:20:54.395Z,23.92
2018-05-23T17:23:22.336Z,23.83
2018-05-23T17:25:50.247Z,23.85
2018-05-23T17:28:19.005Z,23.83
2018-05-23T17:30:46.925Z,23.68
2018-05-23T17:33:14.868Z,23.71
2018-05-23T17:35:42.944Z,23.53
2018-05-23T17:38:10.887Z,23.50
2018-05-23T17:40:39.024Z,23.67
2018-05-23T17:43:06.973Z,23.67
2018-05-23T17:45:34.877Z,23.73
2018-05-23T17:48:02.795Z,23.49
2018-05-23T17:50:30.729Z,23.36
2018-05-23T17:52:58.769Z,23.46
2018-05-23T17:55:26.801Z,23.41
2018-05-23T17:57:54.751Z,23.34
2018-05-23T18:00:22.681Z,23.08
2018-05-23T18:02:50.608Z,22.96
2018-05-23T18:05:18.550Z,23.00
2018-05-23T18:07:47.407Z,23.11
2018-05-23T18:10:15.334Z,22.95
2018-05-23T18:12:43.271Z,23.14
2018-05-23T18:15:12.821Z,23.20
2018-05-23T18:17:40.849Z,23.11
2018-05-23T18:20:08.704Z,23.15
2018-05-23T18:22:36.615Z,23.01
2018-05-23T18:25:04.587Z,22.94
2018-05-23T18:27:32.898Z,22.91
2018-05-23T18:30:00.821Z,22.79
2018-05-23T18:32:28.820Z,22.65
2018-05-23T18:34:56.731Z,22.61
2018-05-23T18:37:24.709Z,22.62
2018-05-23T18:39:53.331Z,22.63
2018-05-23T18:42:21.278Z,22.64
2018-05-23T18:44:49.280Z,22.36
2018-05-23T18:47:17.181Z,22.44
2018-05-23T18:49:45.106Z,22.37
2018-05-23T18:52:13.027Z,22.25
2018-05-23T18:54:40.947Z,22.19
2018-05-23T18:57:08.948Z,22.25
2018-05-23T18:59:36.814Z,22.20
2018-05-23T19:02:05.094Z,22.22
2018-05-23T19:04:32.998Z,22.06
2018-05-23T19:07:01.013Z,21.98
2018-05-23T19:09:28.928Z,22.04
2018-05-23T19:11:56.874Z,22.03
2018-05-23T19:14:24.762Z,21.95
2018-05-23T19:16:52.730Z,22.02
2018-05-23T19:19:20.806Z,21.80
2018-05-23T19:21:49.579Z,21.81
2018-05-23T19:24:17.533Z,21.51
2018-05-23T19:26:45.455Z,21.38
2018-05-23T19:29:13.545Z,21.38
2018-05-23T19:31:41.463Z,21.37
2018-05-23T19:34:09.416Z,21.23
2018-05-23T19:36:37.350Z,21.22
2018-05-23T19:39:05.275Z,21.05
2018-05-23T19:41:33.236Z,21.06
2018-05-23T19:44:01.310Z,21.14
2018-05-23T19:46:29.643Z,20.95
2018-05-23T19:48:58.279Z,20.54
2018-05-23T19:51:26.220Z,20.69
2018-05-23T19:53:54.220Z,20.73
2018-05-23T19:56:22.254Z,20.66
2018-05-23T19:58:50.241Z,20.55
2018-05-23T20:01:18.166Z,20.53
2018-05-23T20:03:46.083Z,20.41
2018-05-23T20:06:14.473Z,20.56
2018-05-23T20:08:42.375Z,20.62
2018-05-23T20:11:10.329Z,20.42
2018-05-23T20:13:38.261Z,20.49
2018-05-23T20:16:06.219Z,20.49
2018-05-23T20:18:34.189Z,20.43
2018-05-23T20:21:02.225Z,20.36
2018-05-23T20:23:30.171Z,20.24
2018-05-23T20:25:58.224Z,20.33
2018-05-23T20:28:26.192Z,20.31
2018-05-23T20:30:54.092Z,20.40
2018-05-23T20:33:22.048Z,20.17
2018-05-23T20:35:49.999Z,19.89
2018-05-23T20:38:18.518Z,19.84
2018-05-23T20:40:47.121Z,19.81
2018-05-23T20:43:15.616Z,19.92
2018-05-23T20:45:44.473Z,19.94
2018-05-23T20:48:12.390Z,19.83
2018-05-23T20:50:40.315Z,19.85
2018-05-23T20:53:08.310Z,20.00
2018-05-23T20:55:36.231Z,19.55
2018-05-23T20:58:04.136Z,19.06
2018-05-23T21:00:32.088Z,18.91
2018-05-23T21:02:59.987Z,18.69
2018-05-23T21:05:28.095Z,18.62
2018-05-23T21:07:55.938Z,18.55
2018-05-23T21:10:23.910Z,18.66
2018-05-23T21:12:51.910Z,18.69
2018-05-23T21:15:20.060Z,18.73
2018-05-23T21:17:47.984Z,18.72
2018-05-23T21:20:15.916Z,18.56
2018-05-23T21:22:43.849Z,18.69
2018-05-23T21:25:11.786Z,18.58
2018-05-23T21:27:39.781Z,18.62
2018-05-23T21:30:07.694Z,18.93
2018-05-23T21:32:35.616Z,19.03
2018-05-23T21:35:03.555Z,19.11
2018-05-23T21:37:31.509Z,18.86
2018-05-23T21:39:59.418Z,18.66
2018-05-23T21:42:27.374Z,18.49
2018-05-23T21:44:55.397Z,18.23
2018-05-23T21:47:23.300Z,18.13
2018-05-23T21:49:51.203Z,18.11
2018-05-23T21:52:19.120Z,18.20
2018-05-23T21:54:47.113Z,18.07
2018-05-23T21:57:15.060Z,17.97
2018-05-23T21:59:42.983Z,17.94
2018-05-23T22:02:10.919Z,17.92
2018-05-23T22:04:38.822Z,17.80
2018-05-23T22:07:06.722Z,17.67
2018-05-23T22:09:34.671Z,17.75
2018-05-23T22:12:02.599Z,17.84
2018-05-23T22:14:30.505Z,17.67
2018-05-23T22:16:58.427Z,17.56
2018-05-23T22:19:26.343Z,17.47
2018-05-23T22:21:54.272Z,17.55
2018-05-23T22:24:22.188Z,17.41
2018-05-23T22:26:50.096Z,17.52
2018-05-23T22:29:18.057Z,17.25
2018-05-23T22:31:45.941Z,17.26
2018-05-23T22:34:13.859Z,17.33
2018-05-23T22:36:41.767Z,17.31
2018-05-23T22:39:09.833Z,17.16
2018-05-23T22:41:37.724Z,17.15
2018-05-23T22:44:05.656Z,17.01
2018-05-23T22:46:33.576Z,16.93
2018-05-23T22:49:01.491Z,17.00
2018-05-23T22:51:29.440Z,17.06
2018-05-23T22:53:57.388Z,16.99
2018-05-23T22:56:25.329Z,16.78
2018-05-23T22:58:53.240Z,16.85
2018-05-23T23:01:21.154Z,16.89
2018-05-23T23:03:49.084Z,16.84
2018-05-23T23:06:16.995Z,16.72
2018-05-23T23:08:44.932Z,16.66
2018-05-23T23:11:12.841Z,16.59
2018-05-23T23:13:40.752Z,16.58
2018-05-23T23:16:08.669Z,16.58
2018-05-23T23:18:36.589Z,16.56
2018-05-23T23:21:04.511Z,16.62
2018-05-23T23:23:32.434Z,16.51
2018-05-23T23:26:00.354Z,16.42
2018-05-23T23:28:28.271Z,16.37
2018-05-23T23:30:56.185Z,16.26
2018-05-23T23:33:24.091Z,16.13
2018-05-23T23:35:52.027Z,16.21
2018-05-23T23:38:19.930Z,16.28
2018-05-23T23:40:47.947Z,16.13
2018-05-23T23:43:15.867Z,16.20
2018-05-23T23:45:43.772Z,16.04
2018-05-23T23:48:11.748Z,15.92
2018-05-23T23:50:39.635Z,16.04
2018-05-23T23:53:07.561Z,15.90
2018-05-23T23:55:35.466Z,16.08
2018-05-23T23:58:03.403Z,16.01
